Decoded Metar for TNCM (PHILIPSBURG in ANTILLES) (IATA:SXM) | Meteo·Mobile Aviation Weather
aviador You're here:

TNCM Decoded Metar

PHILIPSBURG in ANTILLES
Report Time2018-11-18 07:00:00
UTC Time2018-11-18 07:39:54
Flight Rules vfr VFR
Wind080° at 09 kt
W.Decomp.*RWY 10: 9.0 kt HW 0.9 kt LCW
W.Rank080° ranks 2
Current wind is below 080° avg. (9.5)
Visibility9999 m
Phenomena:N/A
Clouds:Few 022 Hf
Expected CloudBase > 2,000 ft AGL from Temp-Dew spread
CeilingNone
Temp26°C (ISA +11)
Dew Point21°C (74% RH)
QNH1014 hPa
Density Alt1,581 ft
Elevation13 ft
Report Wrong Elevation
Raw Report
METAR TNCM 180700Z 08009KT 050V110 9999 FEW022 26/21 Q1014 A2995=

Extra information for TNCM:More info

Metar Taf Metar & Taf Last 4 Metars F.Rules Stats Wind Profile Meteogram Temp Stats Airport Information Weather charts Add Link Nearby VenuesMetar ALERT Operation Metar Decoded Social comments